Time;durP1;ratioP1;P1;durP2;ratioP2;P2;SDS_P1;SDS_P2;PMS_P1;PMS_P2;Temp;Humidity;BMP_temperature;BMP_pressure;BME280_temperature;BME280_humidity;BME280_pressure;Samples;Min_cycle;Max_cycle;Signal;HPM_P1;HPM_P2
2021/10/17 00:01:20;;;;;;;1.00;0.52;;;;;;;12.20;70.63;100539.19;4918503;29;20028;-72
2021/10/17 00:03:45;;;;;;;1.00;1.00;;;;;;;12.20;70.33;100538.38;4906998;29;20362;-72
2021/10/17 00:06:11;;;;;;;2.38;0.65;;;;;;;12.19;70.04;100537.56;4921550;29;20066;-72
2021/10/17 00:08:36;;;;;;;1.00;1.00;;;;;;;12.17;70.30;100545.22;4900877;29;20423;-72
2021/10/17 00:11:02;;;;;;;0.50;0.50;;;;;;;12.16;70.85;100537.25;4911929;29;20072;-71
2021/10/17 00:13:28;;;;;;;0.40;0.40;;;;;;;12.15;70.24;100530.13;4923131;29;20036;-74
2021/10/17 00:15:53;;;;;;;2.65;0.75;;;;;;;12.12;70.80;100519.72;4913648;29;20027;-73
2021/10/17 00:18:19;;;;;;;0.70;0.70;;;;;;;12.13;70.49;100522.19;4919192;29;20027;-74
2021/10/17 00:20:45;;;;;;;0.30;0.30;;;;;;;12.14;70.16;100523.03;4928574;29;20042;-74
2021/10/17 00:23:10;;;;;;;0.77;0.70;;;;;;;12.15;70.38;100521.91;4929829;29;20031;-72
2021/10/17 00:25:36;;;;;;;0.70;0.70;;;;;;;12.14;69.73;100517.53;4892787;29;1204365;-73
2021/10/17 00:28:02;;;;;;;0.90;0.90;;;;;;;12.10;70.21;100517.25;4914920;29;20036;-73
2021/10/17 00:30:27;;;;;;;0.82;0.82;;;;;;;12.09;70.34;100501.06;4926694;29;20050;-73
2021/10/17 00:32:53;;;;;;;0.73;0.73;;;;;;;12.09;70.32;100498.34;4935541;29;20110;-74
2021/10/17 00:35:19;;;;;;;1.33;1.23;;;;;;;12.10;70.57;100510.94;4929284;29;20118;-73
2021/10/17 00:37:45;;;;;;;1.50;1.40;;;;;;;12.05;69.94;100495.34;4901093;29;20039;-72
2021/10/17 00:40:13;;;;;;;2.13;2.03;;;;;;;12.00;70.79;100495.31;4930887;29;20526;-73
2021/10/17 00:42:40;;;;;;;2.40;2.30;;;;;;;11.98;71.19;100498.34;4930320;29;20031;-71
2021/10/17 00:45:10;;;;;;;2.65;2.08;;;;;;;11.98;70.88;100497.53;4929050;29;20128;-72
2021/10/17 00:47:35;;;;;;;2.30;2.20;;;;;;;11.97;71.61;100495.88;4934572;29;20140;-71
2021/10/17 00:50:01;;;;;;;2.78;2.58;;;;;;;11.98;71.02;100495.59;4903069;29;20115;-73
2021/10/17 00:52:27;;;;;;;2.20;2.10;;;;;;;11.96;71.04;100495.06;4928071;29;20106;-72
2021/10/17 00:54:55;;;;;;;3.10;2.55;;;;;;;11.96;71.33;100494.22;4937692;29;20511;-73
2021/10/17 00:57:20;;;;;;;4.85;3.20;;;;;;;11.95;71.52;100496.16;4930542;29;20323;-73
2021/10/17 00:59:46;;;;;;;4.00;3.65;;;;;;;11.95;71.91;100498.06;4932767;29;20043;-73
2021/10/17 01:02:12;;;;;;;4.43;4.13;;;;;;;11.98;72.07;100498.34;4926759;29;21408;-71
2021/10/17 01:04:38;;;;;;;4.07;3.88;;;;;;;11.99;71.63;100497.25;4921056;29;20425;-72
2021/10/17 01:07:06;;;;;;;3.13;2.92;;;;;;;12.00;72.16;100490.69;4932603;29;20035;-71
2021/10/17 01:09:31;;;;;;;2.75;2.65;;;;;;;12.02;71.69;100488.47;4919419;29;20043;-73
2021/10/17 01:11:57;;;;;;;1.58;1.48;;;;;;;12.06;71.45;100494.22;4925482;29;20145;-73
2021/10/17 01:14:26;;;;;;;2.13;2.03;;;;;;;12.09;71.98;100499.19;4906251;29;20126;-72
2021/10/17 01:16:52;;;;;;;1.88;1.77;;;;;;;12.07;71.59;100489.56;4909363;29;20067;-75
2021/10/17 01:19:20;;;;;;;2.13;2.03;;;;;;;12.14;71.45;100493.69;4922232;29;20111;-74
2021/10/17 01:21:46;;;;;;;1.88;1.75;;;;;;;12.11;71.86;100486.00;4937263;29;20069;-74
2021/10/17 01:24:13;;;;;;;1.90;1.80;;;;;;;12.18;71.76;100489.28;4896444;29;20127;-74
2021/10/17 01:26:40;;;;;;;1.80;1.70;;;;;;;12.17;71.25;100484.09;4911760;29;20051;-73
2021/10/17 01:29:07;;;;;;;2.30;1.40;;;;;;;12.27;71.83;100483.25;4912862;29;20035;-74
2021/10/17 01:31:54;;;;;;;1.00;1.00;;;;;;;12.34;71.76;100479.13;4932715;29;20087;-74
2021/10/17 01:34:22;;;;;;;0.98;0.98;;;;;;;12.31;71.33;100468.72;4915239;29;20031;-74
2021/10/17 01:36:48;;;;;;;1.17;1.10;;;;;;;12.42;71.32;100474.19;4923154;29;20046;-73
2021/10/17 01:39:16;;;;;;;1.27;1.27;;;;;;;12.48;71.43;100473.88;4932108;29;20024;-73
2021/10/17 01:41:44;;;;;;;1.25;1.20;;;;;;;12.56;71.39;100464.28;4915422;29;20106;-72
2021/10/17 01:44:15;;;;;;;1.30;1.23;;;;;;;12.64;71.36;100466.44;4915075;29;20047;-73
2021/10/17 01:46:41;;;;;;;1.10;1.10;;;;;;;12.69;71.08;100469.19;4931231;29;20024;-73
2021/10/17 01:49:10;;;;;;;1.27;1.27;;;;;;;12.73;71.34;100470.28;4918145;29;20038;-72
2021/10/17 01:51:36;;;;;;;1.85;1.25;;;;;;;12.73;71.34;100459.28;4914440;29;20036;-72
2021/10/17 01:54:04;;;;;;;1.70;1.60;;;;;;;12.77;70.87;100454.06;4925561;29;20091;-73
2021/10/17 01:56:30;;;;;;;2.22;2.13;;;;;;;12.80;70.89;100453.50;4908704;29;20031;-72
2021/10/17 01:58:55;;;;;;;1.27;1.27;;;;;;;12.77;71.46;100454.06;4928034;29;20098;-72
2021/10/17 02:01:21;;;;;;;1.95;1.85;;;;;;;12.76;70.98;100452.41;4941753;29;20031;-73
2021/10/17 02:03:46;;;;;;;1.45;1.45;;;;;;;12.78;71.25;100454.91;4931240;29;20040;-73
2021/10/17 02:06:12;;;;;;;0.90;0.90;;;;;;;12.78;71.44;100454.91;4930372;29;20059;-73
2021/10/17 02:08:37;;;;;;;1.30;1.30;;;;;;;12.69;71.32;100436.25;4938595;28;20031;-73
2021/10/17 02:11:03;;;;;;;1.17;1.17;;;;;;;12.80;70.96;100452.69;4926791;29;20479;-73
2021/10/17 02:13:28;;;;;;;0.93;0.93;;;;;;;12.81;71.15;100448.84;4912405;29;20126;-74
2021/10/17 02:15:54;;;;;;;1.30;1.20;;;;;;;12.84;71.07;100453.78;4906360;29;20032;-74
2021/10/17 02:18:19;;;;;;;1.45;1.35;;;;;;;12.83;71.25;100447.44;4900842;29;20480;-72
2021/10/17 02:20:45;;;;;;;0.90;0.90;;;;;;;12.88;71.58;100452.13;4913890;29;20024;-74
2021/10/17 02:23:10;;;;;;;1.00;1.00;;;;;;;12.91;71.09;100454.28;4910973;29;20108;-73
2021/10/17 02:25:36;;;;;;;1.48;0.80;;;;;;;12.94;71.23;100448.25;4907742;29;20059;-73
2021/10/17 02:28:01;;;;;;;1.23;0.85;;;;;;;12.96;70.94;100440.53;4922293;29;20067;-73
2021/10/17 02:30:27;;;;;;;0.77;0.77;;;;;;;12.97;71.55;100433.13;4910953;29;20281;-73
2021/10/17 02:32:53;;;;;;;1.20;1.20;;;;;;;13.00;71.51;100436.13;4898725;29;20031;-73
2021/10/17 02:35:19;;;;;;;1.42;1.33;;;;;;;12.99;71.18;100428.97;4908794;29;20035;-72
2021/10/17 02:37:45;;;;;;;0.73;0.73;;;;;;;13.01;71.57;100432.28;4928167;29;20024;-73
2021/10/17 02:40:10;;;;;;;0.88;0.88;;;;;;;13.02;71.63;100433.91;4923901;29;20029;-73
2021/10/17 02:42:39;;;;;;;1.27;1.27;;;;;;;13.02;71.63;100433.09;4916364;29;20036;-72
2021/10/17 02:45:05;;;;;;;1.55;1.50;;;;;;;12.97;70.84;100430.41;4929280;29;20059;-72
2021/10/17 02:47:31;;;;;;;1.90;1.80;;;;;;;12.90;71.19;100419.72;4925393;29;20031;-73
2021/10/17 02:49:57;;;;;;;1.05;1.05;;;;;;;12.88;71.57;100421.94;4924403;29;20036;-72
2021/10/17 02:52:23;;;;;;;1.95;1.85;;;;;;;12.83;71.39;100424.69;4932431;29;20692;-72
2021/10/17 02:54:55;;;;;;;1.80;1.80;;;;;;;12.79;71.85;100416.19;4924389;29;20485;-73
2021/10/17 02:57:21;;;;;;;2.83;2.72;;;;;;;12.79;71.76;100420.84;4928290;29;20063;-72
2021/10/17 02:59:47;;;;;;;3.08;2.97;;;;;;;12.73;71.96;100420.88;4932517;29;20059;-72
2021/10/17 03:02:12;;;;;;;2.40;2.30;;;;;;;12.73;72.41;100423.63;4914317;29;20383;-73
2021/10/17 03:04:38;;;;;;;2.63;2.53;;;;;;;12.69;72.32;100429.97;4915941;29;20035;-73
2021/10/17 03:07:03;;;;;;;2.35;2.25;;;;;;;12.66;72.02;100428.59;4924432;29;20035;-73
2021/10/17 03:09:29;;;;;;;2.58;2.47;;;;;;;12.62;72.36;100427.50;4919343;29;20103;-72
2021/10/17 03:11:54;;;;;;;2.38;2.15;;;;;;;12.55;72.47;100418.75;4912484;29;20028;-72
2021/10/17 03:14:20;;;;;;;2.20;2.10;;;;;;;12.56;72.44;100420.41;4910363;29;20031;-73
2021/10/17 03:16:46;;;;;;;1.98;1.88;;;;;;;12.48;72.42;100419.03;4929960;29;20082;-73
2021/10/17 03:19:12;;;;;;;2.38;2.28;;;;;;;12.46;72.89;100415.75;4907958;29;20119;-74
2021/10/17 03:21:38;;;;;;;2.03;1.92;;;;;;;12.46;73.24;100420.44;4910932;29;20043;-73
2021/10/17 03:24:04;;;;;;;1.77;1.67;;;;;;;12.43;73.18;100415.50;4925384;29;20036;-72
2021/10/17 03:26:30;;;;;;;2.10;2.00;;;;;;;12.43;73.02;100415.50;4917098;29;20063;-72
2021/10/17 03:28:55;;;;;;;1.27;1.27;;;;;;;12.44;72.82;100412.50;4914810;29;20039;-71
2021/10/17 03:31:21;;;;;;;1.58;1.58;;;;;;;12.44;73.29;100408.91;4930879;29;20103;-71
2021/10/17 03:33:46;;;;;;;1.92;1.83;;;;;;;12.43;72.78;100410.84;4913166;29;20032;-73
2021/10/17 03:36:11;;;;;;;2.20;2.10;;;;;;;12.44;72.96;100414.38;4911901;29;20040;-71
2021/10/17 03:38:37;;;;;;;1.73;1.70;;;;;;;12.45;73.11;100410.56;4926497;29;20031;-71
2021/10/17 03:41:03;;;;;;;2.15;2.05;;;;;;;12.43;73.15;100410.03;4926462;29;20060;-71
2021/10/17 03:43:28;;;;;;;1.98;1.88;;;;;;;12.39;73.54;100405.06;4935218;29;20099;-71
2021/10/17 03:45:56;;;;;;;0.90;0.90;;;;;;;12.43;72.91;100410.03;4933723;29;20027;-71
2021/10/17 03:48:22;;;;;;;2.53;2.42;;;;;;;12.38;73.13;100397.97;4921226;29;20092;-72
2021/10/17 03:50:48;;;;;;;1.52;1.52;;;;;;;12.42;73.33;100403.69;4935298;29;20044;-72
2021/10/17 03:53:13;;;;;;;2.03;1.92;;;;;;;12.42;73.59;100406.44;4915820;29;20039;-71
2021/10/17 03:55:41;;;;;;;1.15;1.15;;;;;;;12.39;73.45;100399.59;4918163;29;20035;-72
2021/10/17 03:58:06;;;;;;;1.27;1.17;;;;;;;12.38;73.60;100399.88;4927801;29;20042;-70
2021/10/17 04:00:32;;;;;;;1.90;1.80;;;;;;;12.41;73.49;100399.31;4921965;29;20749;-70
2021/10/17 04:02:57;;;;;;;1.60;1.60;;;;;;;12.40;73.48;100401.22;4912098;29;20043;-70
2021/10/17 04:05:23;;;;;;;2.15;2.05;;;;;;;12.42;73.51;100402.88;4892266;29;20036;-70
2021/10/17 04:07:48;;;;;;;1.98;1.88;;;;;;;12.36;73.16;100397.41;4930680;29;20122;-71
2021/10/17 04:10:14;;;;;;;1.30;1.30;;;;;;;12.35;73.28;100397.69;4925920;29;20724;-71
2021/10/17 04:12:39;;;;;;;1.45;1.38;;;;;;;12.32;73.04;100398.25;4920755;29;20469;-72
2021/10/17 04:15:07;;;;;;;0.93;0.93;;;;;;;12.29;72.93;100404.28;4914707;29;20063;-72
2021/10/17 04:17:33;;;;;;;1.00;1.00;;;;;;;12.28;73.29;100403.47;4920717;29;20522;-71
2021/10/17 04:19:59;;;;;;;0.88;0.88;;;;;;;12.27;72.98;100406.50;4926550;29;20044;-73
2021/10/17 04:22:24;;;;;;;0.80;0.80;;;;;;;12.25;73.19;100409.53;4936755;28;20375;-73
2021/10/17 04:24:50;;;;;;;0.60;0.60;;;;;;;12.25;73.71;100404.03;4911931;29;20047;-72
2021/10/17 04:27:15;;;;;;;0.90;0.90;;;;;;;12.25;72.79;100415.00;4930013;29;20051;-72
2021/10/17 04:29:40;;;;;;;0.50;0.50;;;;;;;12.25;72.75;100414.16;4932964;29;20035;-72
2021/10/17 04:32:07;;;;;;;0.45;0.45;;;;;;;12.23;73.28;100406.22;4912415;29;20031;-72
2021/10/17 04:34:33;;;;;;;0.60;0.60;;;;;;;12.23;72.93;100411.69;4915252;29;20036;-73
2021/10/17 04:37:00;;;;;;;0.50;0.50;;;;;;;12.21;73.23;100408.44;4927030;29;20487;-72
2021/10/17 04:39:26;;;;;;;0.70;0.70;;;;;;;12.21;73.20;100413.91;4925353;29;20038;-72
2021/10/17 04:41:52;;;;;;;0.73;0.73;;;;;;;12.21;73.31;100408.44;4915859;29;20035;-72
2021/10/17 04:44:17;;;;;;;0.57;0.57;;;;;;;12.20;72.97;100412.25;4936793;29;20028;-73
2021/10/17 04:46:43;;;;;;;0.40;0.40;;;;;;;12.21;73.22;100413.91;4913946;29;20036;-71
2021/10/17 04:49:08;;;;;;;0.40;0.40;;;;;;;12.23;72.63;100418.00;4917616;29;20032;-72
2021/10/17 04:51:34;;;;;;;1.15;1.15;;;;;;;12.25;73.10;100420.47;4917181;29;20044;-72
2021/10/17 04:53:59;;;;;;;0.90;0.90;;;;;;;12.31;72.74;100419.38;4929128;29;20032;-73
2021/10/17 04:56:25;;;;;;;1.20;1.20;;;;;;;12.33;72.75;100417.16;4934643;29;20707;-72
2021/10/17 04:58:50;;;;;;;1.30;1.30;;;;;;;12.30;73.16;100414.97;4928938;29;20094;-72
2021/10/17 05:01:16;;;;;;;1.70;1.60;;;;;;;12.34;72.65;100415.25;4924072;29;20055;-72
2021/10/17 05:03:41;;;;;;;2.20;2.10;;;;;;;12.33;72.97;100419.91;4932806;29;20027;-72
2021/10/17 05:06:07;;;;;;;2.10;2.00;;;;;;;12.32;72.94;100420.19;4912049;29;20039;-72
2021/10/17 05:08:33;;;;;;;1.48;1.45;;;;;;;12.26;73.23;100408.41;4921556;29;20354;-72
2021/10/17 05:10:58;;;;;;;1.90;1.85;;;;;;;12.29;73.34;100416.06;4919265;29;20812;-71
2021/10/17 05:13:24;;;;;;;2.78;2.53;;;;;;;12.29;73.71;100407.84;4930328;29;20088;-71
2021/10/17 05:15:49;;;;;;;3.03;2.92;;;;;;;12.29;73.53;100410.59;4923814;29;20527;-70
2021/10/17 05:18:15;;;;;;;3.83;3.30;;;;;;;12.27;73.39;100407.31;4932038;29;20031;-72
2021/10/17 05:20:40;;;;;;;3.42;2.83;;;;;;;12.27;74.01;100403.75;4951733;29;20101;-71
2021/10/17 05:23:07;;;;;;;3.47;3.30;;;;;;;12.25;74.01;100403.19;4925781;29;20371;-72
2021/10/17 05:25:34;;;;;;;4.93;3.08;;;;;;;12.22;73.92;100401.81;4921612;29;20453;-71
2021/10/17 05:28:00;;;;;;;2.38;2.28;;;;;;;12.24;73.77;100399.66;4918044;29;20087;-71
2021/10/17 05:30:26;;;;;;;2.10;2.00;;;;;;;12.23;73.75;100395.25;4928561;29;20138;-70
2021/10/17 05:32:51;;;;;;;2.95;2.75;;;;;;;12.24;74.26;100402.38;4908646;29;20040;-71
2021/10/17 05:35:17;;;;;;;3.05;2.85;;;;;;;12.25;74.57;100398.56;4921187;29;20088;-71
2021/10/17 05:37:42;;;;;;;3.47;3.17;;;;;;;12.25;74.59;100401.28;4931950;29;20032;-70
2021/10/17 05:40:08;;;;;;;2.30;2.15;;;;;;;12.27;74.30;100396.34;4936378;29;20439;-73
2021/10/17 05:42:33;;;;;;;4.03;3.80;;;;;;;12.26;74.26;100397.44;4929939;29;20031;-72
2021/10/17 05:44:59;;;;;;;3.53;3.33;;;;;;;12.30;74.34;100397.72;4901909;29;20043;-72
2021/10/17 05:47:24;;;;;;;3.05;2.95;;;;;;;12.30;74.17;100412.22;4928248;29;20123;-74
2021/10/17 05:49:50;;;;;;;2.42;2.33;;;;;;;12.31;74.82;100402.91;4930682;29;20036;-72
2021/10/17 05:52:15;;;;;;;4.60;4.25;;;;;;;12.31;74.24;100408.41;4925094;29;20031;-71
2021/10/17 05:54:41;;;;;;;4.65;4.35;;;;;;;12.35;74.95;100404.00;4927937;29;20395;-73
2021/10/17 05:57:06;;;;;;;4.70;4.50;;;;;;;12.38;74.55;100397.13;4928154;29;20348;-73
2021/10/17 05:59:32;;;;;;;5.50;5.15;;;;;;;12.42;74.49;100398.22;4925665;29;20043;-73
2021/10/17 06:01:58;;;;;;;3.30;3.10;;;;;;;12.45;74.87;100402.31;4899668;29;20031;-73
2021/10/17 06:04:23;;;;;;;2.72;2.63;;;;;;;12.43;74.80;100399.06;4911295;29;20031;-73
2021/10/17 06:06:51;;;;;;;2.40;2.30;;;;;;;12.51;75.35;100407.53;4904421;29;20126;-71
2021/10/17 06:09:16;;;;;;;1.40;1.40;;;;;;;12.55;75.19;100403.09;4914207;29;20040;-71
2021/10/17 06:11:42;;;;;;;1.20;1.20;;;;;;;12.58;74.40;100401.72;4902159;29;20050;-71
2021/10/17 06:14:07;;;;;;;0.70;0.70;;;;;;;12.54;74.54;100396.00;4898304;29;20040;-73
2021/10/17 06:16:33;;;;;;;1.08;1.08;;;;;;;12.59;74.71;100408.88;4928243;29;20039;-72
2021/10/17 06:18:58;;;;;;;0.90;0.90;;;;;;;12.54;74.29;100395.16;4927818;29;20044;-70
2021/10/17 06:21:24;;;;;;;0.50;0.50;;;;;;;12.53;74.40;100399.81;4902238;29;20023;-72
2021/10/17 06:23:49;;;;;;;1.45;1.35;;;;;;;12.50;74.41;100400.38;4898982;29;20032;-71
2021/10/17 06:26:15;;;;;;;1.25;0.50;;;;;;;12.45;73.69;100392.16;4902219;29;20060;-71
2021/10/17 06:28:40;;;;;;;0.45;0.45;;;;;;;12.46;74.36;100402.03;4913790;29;20036;-69
2021/10/17 06:31:06;;;;;;;0.70;0.70;;;;;;;12.43;74.13;100401.78;4912890;29;20119;-69
2021/10/17 06:33:31;;;;;;;0.52;0.52;;;;;;;12.45;74.09;100402.31;4912635;29;20036;-69
2021/10/17 06:35:57;;;;;;;0.85;0.73;;;;;;;12.45;74.28;100402.31;4908596;29;20398;-69
2021/10/17 06:38:22;;;;;;;0.30;0.30;;;;;;;12.45;74.14;100402.31;4903159;29;20080;-72
2021/10/17 06:40:48;;;;;;;0.43;0.40;;;;;;;12.51;73.93;100413.00;4910166;29;20036;-71
2021/10/17 06:43:13;;;;;;;0.45;0.45;;;;;;;12.56;74.38;100414.91;4902525;29;20538;-71
2021/10/17 06:45:39;;;;;;;0.80;0.80;;;;;;;12.58;74.37;100415.44;4908922;29;20031;-70
2021/10/17 06:48:04;;;;;;;0.80;0.80;;;;;;;12.62;74.46;100411.03;4910715;29;20162;-71
2021/10/17 06:50:30;;;;;;;0.73;0.73;;;;;;;12.64;74.07;100417.06;4902867;29;20028;-70
2021/10/17 06:52:55;;;;;;;1.33;1.30;;;;;;;12.65;74.45;100418.72;4890326;29;20108;-71
2021/10/17 06:55:21;;;;;;;1.30;1.30;;;;;;;12.65;74.05;100412.41;4910412;29;20063;-71
2021/10/17 06:57:58;;;;;;;1.98;1.88;;;;;;;12.69;74.31;100413.50;4912984;29;20104;-70
2021/10/17 07:00:24;;;;;;;3.90;1.90;;;;;;;12.68;73.99;100420.88;4914021;29;20028;-71
2021/10/17 07:02:50;;;;;;;5.38;2.35;;;;;;;12.75;74.06;100429.66;4929537;29;20034;-72
2021/10/17 07:05:27;;;;;;;1.80;1.70;;;;;;;12.81;74.25;100424.16;4914092;29;20032;-72
2021/10/17 07:07:55;;;;;;;1.45;1.40;;;;;;;12.79;74.31;100407.97;4903931;29;20036;-72
2021/10/17 07:10:20;;;;;;;0.80;0.80;;;;;;;12.85;74.18;100412.31;4917417;29;20095;-71
2021/10/17 07:12:46;;;;;;;1.30;1.30;;;;;;;12.88;74.35;100405.47;4912356;29;20040;-71
2021/10/17 07:15:14;;;;;;;1.77;1.67;;;;;;;12.97;73.86;100409.25;4915504;29;20058;-72
2021/10/17 07:17:40;;;;;;;1.65;1.55;;;;;;;13.05;74.15;100422.38;4913220;29;20125;-72
2021/10/17 07:20:38;;;;;;;1.10;1.10;;;;;;;13.12;74.36;100424.00;4923704;29;20028;-74
2021/10/17 07:26:54;;;;;;;0.90;0.90;;;;;;;13.22;74.14;100426.69;4911012;28;20040;-70
2021/10/17 07:29:23;;;;;;;1.25;1.15;;;;;;;13.26;74.54;100423.06;4925693;29;20071;-70
2021/10/17 07:31:52;;;;;;;1.13;1.13;;;;;;;13.31;74.04;100424.97;4932308;29;20059;-71
2021/10/17 07:34:35;;;;;;;1.25;1.25;;;;;;;13.37;74.12;100418.34;4916692;29;20283;-72
2021/10/17 07:37:01;;;;;;;2.42;2.33;;;;;;;13.35;73.84;100415.09;4905845;29;20032;-70
2021/10/17 07:39:26;;;;;;;2.72;2.53;;;;;;;13.40;74.26;100412.31;4933095;29;20040;-71
2021/10/17 07:42:06;;;;;;;2.78;2.42;;;;;;;13.44;74.18;100410.63;4896115;29;20059;-71
2021/10/17 07:44:32;;;;;;;2.20;2.10;;;;;;;13.44;73.63;100413.38;4929083;29;20115;-74
2021/10/17 07:46:58;;;;;;;2.13;2.03;;;;;;;13.50;74.03;100421.59;4915634;29;20538;-70
2021/10/17 07:49:33;;;;;;;2.35;2.15;;;;;;;13.49;74.06;100419.94;4931910;29;20572;-71
2021/10/17 07:51:58;;;;;;;2.90;2.67;;;;;;;13.55;73.85;100424.28;4912995;29;20099;-71
2021/10/17 07:54:24;;;;;;;2.47;2.38;;;;;;;13.58;74.26;100434.69;4911892;29;20027;-70
2021/10/17 07:56:49;;;;;;;1.45;1.45;;;;;;;13.65;74.19;100445.38;4928420;29;20484;-70
2021/10/17 07:59:17;;;;;;;2.55;1.98;;;;;;;13.71;73.68;100445.06;4932011;29;20035;-70
2021/10/17 08:01:43;;;;;;;1.80;1.70;;;;;;;13.76;73.75;100447.75;4915770;29;20047;-70
2021/10/17 08:04:09;;;;;;;1.92;1.77;;;;;;;13.83;73.64;100447.44;4946508;28;20489;-71
2021/10/17 08:06:34;;;;;;;1.38;1.38;;;;;;;13.88;73.78;100449.31;4930960;29;20470;-70
2021/10/17 08:09:00;;;;;;;1.50;1.40;;;;;;;13.91;74.02;100448.75;4926258;29;20111;-70
2021/10/17 08:11:25;;;;;;;2.08;1.77;;;;;;;13.96;73.88;100448.72;4911173;29;20057;-71
2021/10/17 08:13:53;;;;;;;3.85;2.67;;;;;;;14.00;73.75;100440.69;4932205;29;20462;-70
2021/10/17 08:16:18;;;;;;;2.17;2.08;;;;;;;14.06;73.94;100445.88;4915617;29;20476;-69
2021/10/17 08:18:44;;;;;;;2.08;1.98;;;;;;;14.13;73.75;100443.59;4919386;29;20099;-70
2021/10/17 08:21:09;;;;;;;2.75;2.55;;;;;;;14.19;73.77;100443.53;4917400;29;20028;-69
2021/10/17 08:23:35;;;;;;;2.50;2.40;;;;;;;14.24;73.50;100444.31;4926197;29;20122;-72
2021/10/17 08:26:00;;;;;;;2.38;2.28;;;;;;;14.27;73.48;100445.69;4906356;29;20036;-71
2021/10/17 08:28:28;;;;;;;2.13;2.03;;;;;;;14.30;73.67;100434.09;4907652;29;20397;-72
2021/10/17 08:30:58;;;;;;;2.92;2.03;;;;;;;14.35;73.17;100442.28;4911744;29;20048;-72
2021/10/17 08:33:26;;;;;;;1.98;1.88;;;;;;;14.49;73.23;100447.91;4907886;29;20032;-71
2021/10/17 08:35:51;;;;;;;2.08;1.98;;;;;;;14.60;73.09;100449.47;4908224;29;20064;-72
2021/10/17 08:38:17;;;;;;;4.57;1.65;;;;;;;14.72;72.89;100451.00;4919166;29;20531;-72
2021/10/17 08:40:47;;;;;;;2.10;2.00;;;;;;;14.81;72.86;100458.31;4916176;29;20101;-71
2021/10/17 08:43:12;;;;;;;1.98;1.88;;;;;;;14.86;72.52;100453.88;4906560;29;20032;-71
2021/10/17 08:45:38;;;;;;;1.80;1.70;;;;;;;14.92;72.79;100452.69;4904230;29;20106;-71
2021/10/17 08:48:04;;;;;;;1.25;1.23;;;;;;;15.00;72.51;100457.53;4909216;29;20078;-70
2021/10/17 08:50:30;;;;;;;1.40;1.38;;;;;;;15.07;72.44;100447.00;4905444;29;20040;-71
2021/10/17 08:52:55;;;;;;;2.30;2.20;;;;;;;15.13;72.13;100450.50;4908636;29;20032;-70
2021/10/17 08:55:21;;;;;;;2.15;1.92;;;;;;;15.11;72.42;100452.72;4902999;29;20046;-71
2021/10/17 08:57:46;;;;;;;3.03;2.83;;;;;;;15.11;72.18;100453.56;4903343;29;20020;-71
2021/10/17 09:00:31;;;;;;;2.83;2.72;;;;;;;15.11;72.22;100459.06;4913058;29;20549;-74
2021/10/17 09:03:08;;;;;;;2.95;2.85;;;;;;;15.02;72.49;100449.78;4923548;29;20056;-72
2021/10/17 09:05:46;;;;;;;2.65;2.55;;;;;;;15.10;72.04;100468.44;4910050;29;20036;-72
2021/10/17 09:08:16;;;;;;;2.33;2.22;;;;;;;15.12;72.55;100460.69;4915546;29;20506;-73
2021/10/17 09:10:42;;;;;;;2.78;2.67;;;;;;;15.16;72.26;100466.44;4913543;29;20074;-73
2021/10/17 09:13:14;;;;;;;2.22;2.13;;;;;;;15.23;72.25;100455.03;4909485;29;20032;-71
2021/10/17 09:15:41;;;;;;;2.30;2.20;;;;;;;15.30;72.18;100458.25;4911410;29;20167;-73
2021/10/17 09:18:14;;;;;;;1.52;1.42;;;;;;;15.41;72.57;100456.97;4912662;29;20032;-71
2021/10/17 09:20:46;;;;;;;2.03;1.92;;;;;;;15.56;72.29;100460.63;4914207;29;20063;-74
2021/10/17 09:23:24;;;;;;;2.10;2.00;;;;;;;15.65;72.38;100458.81;4912424;29;20035;-74
2021/10/17 09:25:53;;;;;;;3.72;3.60;;;;;;;15.76;71.95;100465.03;4917395;29;20551;-75
2021/10/17 09:28:23;;;;;;;3.85;3.58;;;;;;;15.91;71.63;100469.50;4935043;29;20070;-72
2021/10/17 09:31:05;;;;;;;5.15;4.65;;;;;;;16.11;71.70;100473.84;4936459;29;20063;-75
2021/10/17 09:33:31;;;;;;;4.45;4.15;;;;;;;16.24;70.63;100473.06;4935065;29;20056;-75
2021/10/17 09:36:13;;;;;;;3.47;3.28;;;;;;;16.42;70.75;100474.13;4932445;29;20031;-74
2021/10/17 09:38:41;;;;;;;5.10;4.70;;;;;;;16.62;69.94;100477.59;4928370;29;20482;-72
2021/10/17 09:41:22;;;;;;;2.95;2.70;;;;;;;16.80;70.21;100482.22;4929059;29;20042;-73
2021/10/17 09:43:55;;;;;;;2.75;2.65;;;;;;;17.01;69.58;100477.16;4932413;29;20042;-73
2021/10/17 09:46:22;;;;;;;3.47;3.28;;;;;;;17.22;69.17;100477.53;4929924;29;20074;-73
2021/10/17 09:48:49;;;;;;;3.88;3.67;;;;;;;17.33;69.06;100480.06;4932189;29;20047;-73
2021/10/17 09:51:41;;;;;;;3.53;3.33;;;;;;;17.55;68.78;100476.53;4930899;29;20032;-75
2021/10/17 09:54:06;;;;;;;2.53;2.30;;;;;;;17.65;68.68;100464.41;4915473;29;20036;-75
2021/10/17 09:56:38;;;;;;;2.60;2.50;;;;;;;17.84;68.46;100462.28;4923205;29;20027;-73
2021/10/17 09:59:05;;;;;;;2.38;2.28;;;;;;;18.01;68.48;100460.81;4912481;29;20032;-74
2021/10/17 10:01:31;;;;;;;2.33;2.22;;;;;;;18.24;67.78;100458.84;4928733;29;20102;-75
2021/10/17 10:03:59;;;;;;;2.17;2.08;;;;;;;18.47;67.91;100473.44;4926092;29;20036;-76
2021/10/17 10:06:39;;;;;;;4.20;2.80;;;;;;;18.72;67.73;100462.78;4926204;29;20027;-73
2021/10/17 10:09:11;;;;;;;8.98;3.22;;;;;;;18.94;66.45;100473.84;4931812;29;20039;-75
2021/10/17 10:11:39;;;;;;;3.60;3.40;;;;;;;18.95;65.47;100472.72;4922672;29;20031;-75
2021/10/17 10:14:06;;;;;;;3.80;3.50;;;;;;;19.01;65.01;100474.19;4929739;29;20060;-75
2021/10/17 10:16:32;;;;;;;2.50;2.30;;;;;;;19.14;65.45;100469.66;4931487;29;20027;-75
2021/10/17 10:19:27;;;;;;;2.40;2.20;;;;;;;19.51;65.20;100483.25;4936132;29;20032;-74
2021/10/17 10:21:53;;;;;;;2.05;1.95;;;;;;;19.62;64.46;100478.97;4930348;29;20023;-74
2021/10/17 10:24:19;;;;;;;3.17;2.65;;;;;;;19.75;63.72;100490.25;4901754;29;20046;-73
2021/10/17 10:26:52;;;;;;;3.33;3.08;;;;;;;19.85;63.67;100482.44;4926996;29;20430;-71
2021/10/17 10:29:34;;;;;;;2.75;2.65;;;;;;;20.07;63.36;100488.94;4902914;29;20044;-73
2021/10/17 10:32:01;;;;;;;2.08;1.98;;;;;;;20.37;63.30;100489.03;4924468;29;20027;-72
2021/10/17 10:34:38;;;;;;;2.10;2.00;;;;;;;20.65;62.81;100481.13;4926033;29;20028;-71
2021/10/17 10:37:30;;;;;;;2.85;2.60;;;;;;;20.58;61.04;100458.59;4929015;29;20079;-71
2021/10/17 10:40:02;;;;;;;3.30;3.00;;;;;;;20.54;59.79;100474.28;4916354;29;20036;-70
2021/10/17 10:42:44;;;;;;;3.40;3.03;;;;;;;20.47;58.72;100474.00;4919143;29;20367;-72
2021/10/17 10:45:28;;;;;;;3.85;2.10;;;;;;;20.61;58.51;100473.78;4906287;29;20398;-71
2021/10/17 10:48:12;;;;;;;2.28;2.17;;;;;;;21.46;58.14;100481.19;4927314;29;20023;-72
2021/10/17 10:50:41;;;;;;;3.80;2.83;;;;;;;22.14;55.10;100478.16;4932087;29;20433;-72
2021/10/17 10:53:09;;;;;;;2.80;2.60;;;;;;;22.87;53.52;100480.63;4935350;29;20027;-70
2021/10/17 10:55:51;;;;;;;3.38;2.13;;;;;;;23.49;53.50;100478.63;4927384;29;20028;-71
2021/10/17 10:58:28;;;;;;;5.85;2.63;;;;;;;23.53;50.38;100477.56;4923960;29;20028;-72
2021/10/17 11:00:58;;;;;;;2.28;2.17;;;;;;;23.32;50.34;100474.13;4919861;29;20024;-72
2021/10/17 11:03:26;;;;;;;2.13;1.98;;;;;;;23.13;50.43;100472.75;4905146;29;20699;-74
2021/10/17 11:06:04;;;;;;;3.45;2.90;;;;;;;23.30;49.73;100484.81;4927803;29;20035;-71
2021/10/17 11:08:30;;;;;;;2.55;2.38;;;;;;;23.17;48.84;100482.06;4915573;29;20063;-71
2021/10/17 11:11:06;;;;;;;2.70;2.60;;;;;;;23.04;49.71;100463.66;4905391;29;20427;-71
2021/10/17 11:13:40;;;;;;;4.35;1.88;;;;;;;22.98;49.60;100471.47;4930765;29;20032;-72
2021/10/17 11:16:07;;;;;;;2.20;2.10;;;;;;;22.92;49.69;100455.31;4930140;29;20028;-71
2021/10/17 11:18:40;;;;;;;2.75;2.55;;;;;;;22.69;49.36;100464.13;4908548;29;20110;-72
2021/10/17 11:21:08;;;;;;;4.90;2.03;;;;;;;22.58;49.71;100469.34;4916487;29;20505;-72
2021/10/17 11:23:36;;;;;;;4.80;1.60;;;;;;;22.72;50.23;100466.25;4921006;29;20528;-72
2021/10/17 11:26:07;;;;;;;1.85;1.75;;;;;;;23.08;49.34;100469.34;4926720;29;20079;-74
2021/10/17 11:28:37;;;;;;;1.80;1.52;;;;;;;23.44;49.01;100471.31;4929807;29;20030;-75
2021/10/17 11:31:19;;;;;;;4.75;1.30;;;;;;;23.70;46.50;100472.88;4926912;29;20063;-74